Niel, Belgium
Current Conditions -  °F | °C
As of 2:50 PM on Thursday 23 Oct 2014 (Local Time) from EBAW Reporting Station
Broken Clouds Broken Clouds  
Wind Chill: 57°   Ceiling: 4500
Heat Index: 57°   Visibility: 6mi
Dew Point: 48°   Wind: 10mph
Humidity: 72%   Direction: 210°SSW
Pressure: 30.18"   Gusts: NA
Location:  51.11°N, 4.33°E
Report Text: EBAW 231250Z 21009KT 180V240 9999 FEW021 BKN045 14/09 Q1022 NOSIG
Loading
Personal Weather Stations






























Interactive Weather Map
Tropical Storm Tracking
New forecast layout! Learn more

10-Day Weather Forecast

Advertisements
Track Severe Weather on mobile